Terminal Aerodrome Forecast
Issued by NWS Glasgow, MT

Home | Current Version | Previous Version | Text Only | Print | Product List | Glossary On
Versions: 1 2 3 4 5 6 7 8 9 10 11 12 13 14
000
FTUS45 KGGW 271700
TAFGGW
TAF
KGGW 271725Z 2718/2818 VRB04KT P6SM VCSH SCT030 BKN050
      TEMPO 2718/2722 5SM -SN SCT015 OVC030
     FM280300 08008KT P6SM SCT120 BKN200
     FM281000 08018KT 3SM -SN BLSN OVC009=

USA.gov is the U.S. government's official web portal to all federal, state and local government web resources and services.